Main page
METAR-TAF:

METAR-TAF

Airports :

Skylark Field

Killeen, Texas, United States

latitude: 31-05N, longitude: 097-41W, elevation: 846 ft

Current weather observation

The report was made 9 hours and 40 minutes ago, at 03:56 UTC
Wind 13 mph from the South/Southeast
Temperature 82°F
Humidity 70%
Pressure 29.85 in. Hg
Visibility: 10 miles
Clear sky

METAR: KILE 170356Z AUTO 15011KT 10SM CLR 28/22 A2985 RMK AO2 SLP097 T02830222

Time: 08:36 (13:36 UTC)


TAF: missing

Weather observations and forecasts of more than 4000 airports (METAR and TAF reports).

The available stations are represented by yellow and red dots on the map.

Hover mouse over dot to see the name of the station.

Then click to see weather observations and forecasts.

To change the map : click on the green buttons with a black cross to zoom in, on the green button with a dash to zoom out, or on the green arrows for adjacent maps.


METAR-TAF: